createdAt,value
2022-10-23T00:01:31.224Z,96318.97
2022-10-23T00:04:06.015Z,96317.34
2022-10-23T00:06:33.651Z,96318.16
2022-10-23T00:09:00.563Z,96322.00
2022-10-23T00:11:29.806Z,96317.97
2022-10-23T00:13:59.544Z,96313.97
2022-10-23T00:16:27.059Z,96307.16
2022-10-23T00:18:53.436Z,96303.13
2022-10-23T00:21:20.755Z,96309.88
2022-10-23T00:23:47.106Z,96307.88
2022-10-23T00:26:16.819Z,96316.06
2022-10-23T00:28:44.350Z,96304.25
2022-10-23T00:31:10.944Z,96301.72
2022-10-23T00:33:37.691Z,96298.47
2022-10-23T00:36:09.670Z,96294.56
2022-10-23T00:38:36.322Z,96285.41
2022-10-23T00:41:04.065Z,96285.19
2022-10-23T00:43:31.357Z,96281.88
2022-10-23T00:45:58.377Z,96279.78
2022-10-23T00:48:27.519Z,96273.56
2022-10-23T00:50:54.894Z,96273.56
2022-10-23T00:53:21.823Z,96281.03
2022-10-23T00:55:53.426Z,96271.66
2022-10-23T00:58:21.373Z,96268.03
2022-10-23T01:00:54.189Z,96274.69
2022-10-23T01:03:23.679Z,96276.06
2022-10-23T01:05:59.776Z,96288.25
2022-10-23T01:08:35.424Z,96265.75
2022-10-23T01:11:13.002Z,96272.44
2022-10-23T01:14:11.503Z,96279.06
2022-10-23T01:16:48.794Z,96277.25
2022-10-23T01:19:25.255Z,96289.63
2022-10-23T01:24:59.181Z,96278.69
2022-10-23T01:27:30.594Z,96277.31
2022-10-23T01:30:13.520Z,96272.94
2022-10-23T01:32:54.055Z,96270.94
2022-10-23T01:35:47.745Z,96272.66
2022-10-23T01:38:20.375Z,96267.38
2022-10-23T01:41:02.995Z,96264.84
2022-10-23T01:43:36.888Z,96253.56
2022-10-23T01:46:08.662Z,96256.50
2022-10-23T01:48:37.303Z,96256.78
2022-10-23T01:51:07.827Z,96247.38
2022-10-23T01:53:38.910Z,96252.59
2022-10-23T01:56:09.420Z,96246.41
2022-10-23T01:58:36.461Z,96251.56
2022-10-23T02:01:07.165Z,96242.53
2022-10-23T02:03:37.243Z,96247.81
2022-10-23T02:06:03.784Z,96249.63
2022-10-23T02:08:31.542Z,96250.56
2022-10-23T02:11:07.901Z,96245.84
2022-10-23T02:13:49.326Z,96236.75
2022-10-23T02:16:25.290Z,96232.97
2022-10-23T02:18:56.274Z,96243.13
2022-10-23T02:21:36.848Z,96237.28
2022-10-23T02:24:09.314Z,96231.50
2022-10-23T02:26:45.826Z,96235.56
2022-10-23T02:29:35.562Z,96232.06
2022-10-23T02:32:02.706Z,96227.94
2022-10-23T02:34:29.078Z,96230.19
2022-10-23T02:36:55.515Z,96227.53
2022-10-23T02:39:27.652Z,96220.22
2022-10-23T02:41:58.208Z,96222.13
2022-10-23T02:44:43.295Z,96229.09
2022-10-23T02:47:49.404Z,96225.66
2022-10-23T02:50:42.084Z,96218.00
2022-10-23T02:53:18.217Z,96216.81
2022-10-23T02:56:06.874Z,96216.00
2022-10-23T02:58:58.075Z,96200.28
2022-10-23T03:01:32.867Z,96200.50
2022-10-23T03:04:00.722Z,96193.88
2022-10-23T03:06:27.215Z,96203.41
2022-10-23T03:09:06.188Z,96204.09
2022-10-23T03:11:32.523Z,96197.19
2022-10-23T03:13:58.934Z,96213.72
2022-10-23T03:16:25.387Z,96203.19
2022-10-23T03:18:51.964Z,96194.81
2022-10-23T03:21:18.468Z,96190.56
2022-10-23T03:23:45.539Z,96197.88
2022-10-23T03:26:11.852Z,96183.31
2022-10-23T03:28:38.191Z,96186.16
2022-10-23T03:31:05.404Z,96178.81
2022-10-23T03:33:32.514Z,96182.16
2022-10-23T03:35:59.151Z,96183.94
2022-10-23T03:38:25.519Z,96182.16
2022-10-23T03:40:51.844Z,96189.50
2022-10-23T03:43:18.524Z,96193.59
2022-10-23T03:45:44.827Z,96183.66
2022-10-23T03:48:11.713Z,96186.34
2022-10-23T03:50:38.154Z,96188.78
2022-10-23T03:53:04.491Z,96193.19
2022-10-23T03:55:31.250Z,96189.94
2022-10-23T03:57:58.063Z,96186.53
2022-10-23T04:00:24.382Z,96193.06
2022-10-23T04:02:50.732Z,96192.44
2022-10-23T04:05:17.471Z,96197.75
2022-10-23T04:07:44.184Z,96194.44
2022-10-23T04:10:10.515Z,96197.59
2022-10-23T04:12:37.315Z,96189.94
2022-10-23T04:15:04.200Z,96191.06
2022-10-23T04:17:30.517Z,96188.09
2022-10-23T04:19:57.148Z,96181.97
2022-10-23T04:22:26.009Z,96183.00
2022-10-23T04:24:54.637Z,96180.56
2022-10-23T04:27:21.247Z,96176.28
2022-10-23T04:29:47.654Z,96175.03
2022-10-23T04:32:13.981Z,96167.63
2022-10-23T04:34:40.796Z,96172.03
2022-10-23T04:37:07.221Z,96172.22
2022-10-23T04:39:33.546Z,96173.72
2022-10-23T04:42:00.211Z,96178.84
2022-10-23T04:44:26.948Z,96165.47
2022-10-23T04:46:53.375Z,96164.81
2022-10-23T04:49:19.709Z,96176.59
2022-10-23T04:51:46.443Z,96169.47
2022-10-23T04:54:12.779Z,96164.63
2022-10-23T04:56:40.000Z,96164.44
2022-10-23T05:01:37.858Z,96176.28
2022-10-23T05:04:04.848Z,96171.06
2022-10-23T05:06:31.632Z,96174.09
2022-10-23T05:08:58.057Z,96171.69
2022-10-23T05:11:24.455Z,96170.69
2022-10-23T05:13:51.255Z,96165.03
2022-10-23T05:16:41.768Z,96169.94
2022-10-23T05:19:11.011Z,96163.25
2022-10-23T05:21:39.200Z,96161.00
2022-10-23T05:24:05.732Z,96161.53
2022-10-23T05:26:33.075Z,96151.38
2022-10-23T05:28:59.794Z,96146.72
2022-10-23T05:31:26.241Z,96150.28
2022-10-23T05:33:55.383Z,96148.97
2022-10-23T05:36:23.627Z,96157.78
2022-10-23T05:38:50.583Z,96162.56
2022-10-23T05:41:18.006Z,96169.47
2022-10-23T05:43:46.050Z,96154.81
2022-10-23T05:46:12.479Z,96159.47
2022-10-23T05:48:39.098Z,96145.44
2022-10-23T05:51:10.858Z,96148.50
2022-10-23T05:53:40.129Z,96142.66
2022-10-23T05:56:09.732Z,96145.13
2022-10-23T05:58:36.682Z,96159.59
2022-10-23T06:01:08.009Z,96156.78
2022-10-23T06:03:37.179Z,96154.63
2022-10-23T06:06:04.140Z,96152.16
2022-10-23T06:08:31.864Z,96151.31
2022-10-23T06:10:58.810Z,96150.38
2022-10-23T06:13:25.127Z,96149.44
2022-10-23T06:15:51.472Z,96156.00
2022-10-23T06:18:18.236Z,96154.13
2022-10-23T06:20:44.606Z,96158.66
2022-10-23T06:23:10.955Z,96160.69
2022-10-23T06:25:37.700Z,96162.56
2022-10-23T06:28:04.115Z,96164.59
2022-10-23T06:30:30.470Z,96163.00
2022-10-23T06:32:57.207Z,96165.88
2022-10-23T06:35:23.503Z,96163.47
2022-10-23T06:37:49.816Z,96160.00
2022-10-23T06:40:16.931Z,96175.91
2022-10-23T06:42:43.642Z,96172.84
2022-10-23T06:45:10.338Z,96170.00
2022-10-23T06:47:37.075Z,96165.28
2022-10-23T06:50:03.731Z,96166.31
2022-10-23T06:52:46.365Z,96155.28
2022-10-23T06:55:13.668Z,96150.69
2022-10-23T06:57:40.772Z,96157.44
2022-10-23T07:00:08.010Z,96155.66
2022-10-23T07:02:34.351Z,96161.16
2022-10-23T07:05:01.196Z,96161.09
2022-10-23T07:07:29.876Z,96161.78
2022-10-23T07:09:56.540Z,96163.59
2022-10-23T07:12:23.000Z,96154.97
2022-10-23T07:14:49.388Z,96162.47
2022-10-23T07:17:15.807Z,96155.09
2022-10-23T07:19:42.615Z,96148.97
2022-10-23T07:22:10.793Z,96144.16
2022-10-23T07:24:40.162Z,96155.34
2022-10-23T07:27:06.865Z,96154.69
2022-10-23T07:29:34.094Z,96153.69
2022-10-23T07:32:01.728Z,96146.47
2022-10-23T07:34:28.715Z,96154.59
2022-10-23T07:36:57.258Z,96157.03
2022-10-23T07:39:23.705Z,96149.47
2022-10-23T07:41:50.129Z,96153.44
2022-10-23T07:44:16.879Z,96155.00
2022-10-23T07:46:44.045Z,96156.16
2022-10-23T07:49:11.371Z,96143.56
2022-10-23T07:51:37.689Z,96137.72
2022-10-23T07:54:04.574Z,96154.38
2022-10-23T07:56:31.350Z,96154.69
2022-10-23T07:58:57.879Z,96155.91
2022-10-23T08:01:32.071Z,96158.97
2022-10-23T08:03:58.928Z,96155.88
2022-10-23T08:06:25.598Z,96158.69
2022-10-23T08:08:52.502Z,96159.25
2022-10-23T08:11:25.879Z,96138.53
2022-10-23T08:13:53.562Z,96140.53
2022-10-23T08:16:20.490Z,96156.72
2022-10-23T08:18:48.574Z,96157.63
2022-10-23T08:21:15.718Z,96160.03
2022-10-23T08:23:42.355Z,96147.94
2022-10-23T08:26:09.866Z,96144.09
2022-10-23T08:28:36.386Z,96140.09
2022-10-23T08:31:12.335Z,96152.59
2022-10-23T08:33:39.463Z,96165.69
2022-10-23T08:36:15.384Z,96148.75
2022-10-23T08:38:41.706Z,96145.56
2022-10-23T08:41:24.031Z,96137.22
2022-10-23T08:43:56.435Z,96140.84
2022-10-23T08:46:28.774Z,96140.97
2022-10-23T08:49:20.439Z,96119.19
2022-10-23T08:51:50.491Z,96124.88
2022-10-23T08:54:21.788Z,96119.16
2022-10-23T08:56:58.194Z,96124.91
2022-10-23T08:59:39.901Z,96118.81
2022-10-23T09:02:17.094Z,96108.75
2022-10-23T09:04:46.338Z,96105.50
2022-10-23T09:07:26.914Z,96108.44
2022-10-23T09:09:55.958Z,96108.06
2022-10-23T09:12:24.694Z,96116.88
2022-10-23T09:15:09.693Z,96111.91
2022-10-23T09:17:38.931Z,96107.63
2022-10-23T09:20:16.787Z,96110.81
2022-10-23T09:22:43.418Z,96117.00
2022-10-23T09:25:11.978Z,96116.66
2022-10-23T09:27:38.760Z,96121.66
2022-10-23T09:30:05.720Z,96123.41
2022-10-23T09:32:37.424Z,96125.38
2022-10-23T09:35:05.489Z,96115.75
2022-10-23T09:37:35.762Z,96122.53
2022-10-23T09:40:16.631Z,96118.06
2022-10-23T09:42:55.992Z,96111.44
2022-10-23T09:45:25.192Z,96115.03
2022-10-23T09:47:51.503Z,96111.31
2022-10-23T09:50:21.312Z,96102.56
2022-10-23T09:52:51.341Z,96098.19
2022-10-23T09:55:24.866Z,96104.88
2022-10-23T09:57:53.766Z,96104.84
2022-10-23T10:00:25.918Z,96107.25
2022-10-23T10:03:02.757Z,96099.31
2022-10-23T10:05:33.089Z,96101.91
2022-10-23T10:08:24.223Z,96099.41
2022-10-23T10:10:55.731Z,96091.44
2022-10-23T10:13:34.927Z,96098.34
2022-10-23T10:16:16.662Z,96091.84
2022-10-23T10:19:07.176Z,96083.50
2022-10-23T10:21:33.577Z,96081.66
2022-10-23T10:24:11.852Z,96072.00
2022-10-23T10:26:51.587Z,96067.81
2022-10-23T10:29:39.730Z,96065.59
2022-10-23T10:32:11.967Z,96055.59
2022-10-23T10:34:49.695Z,96042.16
2022-10-23T10:37:44.926Z,96042.06
2022-10-23T10:40:19.836Z,96053.03
2022-10-23T10:43:06.219Z,96050.94
2022-10-23T10:45:49.055Z,96055.88
2022-10-23T10:48:41.239Z,96050.38
2022-10-23T10:51:16.928Z,96045.81
2022-10-23T10:53:48.840Z,96040.81
2022-10-23T10:56:18.810Z,96030.75
2022-10-23T10:58:57.586Z,96032.34
2022-10-23T11:01:37.918Z,96039.81
2022-10-23T11:04:13.586Z,96036.72
2022-10-23T11:06:44.923Z,96039.09
2022-10-23T11:09:24.228Z,96020.75
2022-10-23T11:11:51.080Z,96019.53
2022-10-23T11:14:29.159Z,96023.59
2022-10-23T11:17:07.774Z,96024.47
2022-10-23T11:19:57.619Z,96034.94
2022-10-23T11:22:50.374Z,96020.84
2022-10-23T11:25:47.028Z,96032.88
2022-10-23T11:28:19.743Z,96020.44
2022-10-23T11:31:12.289Z,96031.06
2022-10-23T11:34:07.187Z,96023.78
2022-10-23T11:36:45.748Z,96019.81
2022-10-23T11:39:30.407Z,96017.09
2022-10-23T11:41:59.821Z,96004.19
2022-10-23T11:44:35.101Z,96005.03
2022-10-23T11:47:24.786Z,95996.75
2022-10-23T11:49:51.808Z,95984.94
2022-10-23T11:52:23.938Z,95988.75
2022-10-23T11:55:02.495Z,95993.97
2022-10-23T11:59:57.786Z,95991.72
2022-10-23T12:02:32.315Z,95989.47
2022-10-23T12:05:04.522Z,95982.38
2022-10-23T12:07:35.797Z,95981.69
2022-10-23T12:10:06.479Z,95970.81
2022-10-23T12:12:40.680Z,95970.31
2022-10-23T12:15:17.073Z,95971.00
2022-10-23T12:17:44.240Z,95969.94
2022-10-23T12:20:22.899Z,95959.91
2022-10-23T12:23:17.179Z,95957.75
2022-10-23T12:25:56.870Z,95951.31
2022-10-23T12:28:38.040Z,95941.97
2022-10-23T12:31:24.230Z,95943.06
2022-10-23T12:33:53.371Z,95943.53
2022-10-23T12:36:35.465Z,95941.31
2022-10-23T12:39:02.099Z,95931.88
2022-10-23T12:41:30.557Z,95933.47
2022-10-23T12:43:57.319Z,95931.59
2022-10-23T12:46:40.347Z,95929.38
2022-10-23T12:49:19.520Z,95938.38
2022-10-23T12:51:46.363Z,95921.19
2022-10-23T12:54:16.251Z,95923.69
2022-10-23T12:56:44.182Z,95918.41
2022-10-23T12:59:16.133Z,95920.66
2022-10-23T13:01:43.474Z,95911.59
2022-10-23T13:04:10.215Z,95911.88
2022-10-23T13:06:38.800Z,95917.28
2022-10-23T13:09:07.403Z,95908.91
2022-10-23T13:11:34.068Z,95892.56
2022-10-23T13:14:00.492Z,95897.34
2022-10-23T13:16:27.073Z,95915.69
2022-10-23T13:18:56.315Z,95886.66
2022-10-23T13:21:26.799Z,95868.25
2022-10-23T13:23:54.468Z,95877.59
2022-10-23T13:26:45.477Z,95880.91
2022-10-23T13:29:33.911Z,95864.16
2022-10-23T13:32:24.386Z,95863.06
2022-10-23T13:35:03.645Z,95870.00
2022-10-23T13:37:37.224Z,95876.47
2022-10-23T13:40:07.523Z,95866.53
2022-10-23T13:42:33.886Z,95864.88
2022-10-23T13:45:00.981Z,95867.84
2022-10-23T13:47:27.969Z,95866.38
2022-10-23T13:49:54.375Z,95864.81
2022-10-23T13:52:23.634Z,95859.19
2022-10-23T13:54:51.076Z,95855.38
2022-10-23T13:57:17.407Z,95859.69
2022-10-23T13:59:43.948Z,95857.69
2022-10-23T14:02:20.820Z,95857.53
2022-10-23T14:04:48.680Z,95864.22
2022-10-23T14:07:15.344Z,95864.34
2022-10-23T14:09:42.980Z,95864.63
2022-10-23T14:12:09.444Z,95881.59
2022-10-23T14:14:35.789Z,95874.34
2022-10-23T14:17:02.682Z,95867.19
2022-10-23T14:19:29.167Z,95872.53
2022-10-23T14:21:55.523Z,95884.59
2022-10-23T14:24:22.368Z,95871.75
2022-10-23T14:26:48.770Z,95868.59
2022-10-23T14:29:21.405Z,95872.03
2022-10-23T14:31:50.883Z,95874.47
2022-10-23T14:34:17.585Z,95859.69
2022-10-23T14:36:50.892Z,95857.03
2022-10-23T14:39:23.707Z,95851.63
2022-10-23T14:41:50.032Z,95860.44
2022-10-23T14:44:16.336Z,95859.59
2022-10-23T14:46:43.124Z,95853.66
2022-10-23T14:49:09.462Z,95858.69
2022-10-23T14:51:36.294Z,95855.19
2022-10-23T14:54:05.726Z,95842.06
2022-10-23T14:56:34.317Z,95840.50
2022-10-23T14:59:04.033Z,95833.81
2022-10-23T15:01:32.640Z,95835.16
2022-10-23T15:03:59.116Z,95822.50
2022-10-23T15:06:26.165Z,95838.81
2022-10-23T15:08:55.299Z,95824.38
2022-10-23T15:11:22.526Z,95830.22
2022-10-23T15:13:49.262Z,95821.66
2022-10-23T15:16:15.980Z,95835.00
2022-10-23T15:18:42.301Z,95835.19
2022-10-23T15:21:09.872Z,95823.13
2022-10-23T15:23:41.771Z,95837.53
2022-10-23T15:26:12.752Z,95832.38
2022-10-23T15:28:39.140Z,95831.63
2022-10-23T15:31:05.968Z,95829.25
2022-10-23T15:33:32.717Z,95812.75
2022-10-23T15:35:59.049Z,95822.84
2022-10-23T15:38:26.507Z,95826.59
2022-10-23T15:41:00.580Z,95840.97
2022-10-23T15:43:27.329Z,95839.13
2022-10-23T15:45:53.681Z,95838.22
2022-10-23T15:48:20.107Z,95832.19
2022-10-23T15:50:46.887Z,95835.91
2022-10-23T15:53:13.200Z,95834.66
2022-10-23T15:55:39.528Z,95828.56
2022-10-23T15:58:06.254Z,95821.16
2022-10-23T16:00:35.859Z,95806.72
2022-10-23T16:03:02.591Z,95811.97
2022-10-23T16:05:28.912Z,95805.94
2022-10-23T16:07:55.236Z,95812.28
2022-10-23T16:10:23.147Z,95802.63
2022-10-23T16:12:49.973Z,95787.09
2022-10-23T16:15:16.362Z,95786.91
2022-10-23T16:17:42.985Z,95785.25
2022-10-23T16:20:10.610Z,95812.16
2022-10-23T16:22:40.145Z,95811.50
2022-10-23T16:25:09.487Z,95803.69
2022-10-23T16:27:36.205Z,95806.56
2022-10-23T16:30:02.618Z,95798.31
2022-10-23T16:32:29.007Z,95818.50
2022-10-23T16:34:55.900Z,95801.34
2022-10-23T16:37:22.226Z,95825.16
2022-10-23T16:39:48.557Z,95823.38
2022-10-23T16:42:15.373Z,95831.94
2022-10-23T16:44:41.735Z,95854.97
2022-10-23T16:47:08.066Z,95848.19
2022-10-23T16:49:34.695Z,95849.16
2022-10-23T16:52:01.012Z,95848.69
2022-10-23T16:54:27.360Z,95866.78
2022-10-23T16:56:54.183Z,95863.22
2022-10-23T16:59:20.559Z,95858.56
2022-10-23T17:01:47.035Z,95866.22
2022-10-23T17:04:14.078Z,95862.66
2022-10-23T17:06:41.063Z,95861.44
2022-10-23T17:09:07.436Z,95868.81
2022-10-23T17:11:37.435Z,95867.84
2022-10-23T17:14:17.525Z,95863.56
2022-10-23T17:16:48.366Z,95839.44
2022-10-23T17:19:33.101Z,95873.28
2022-10-23T17:22:03.001Z,95896.00
2022-10-23T17:24:29.411Z,95871.47
2022-10-23T17:26:56.093Z,95843.47
2022-10-23T17:29:22.939Z,95857.97
2022-10-23T17:31:51.422Z,95862.72
2022-10-23T17:34:20.840Z,95864.41
2022-10-23T17:36:50.156Z,95855.63
2022-10-23T17:39:23.294Z,95845.66
2022-10-23T17:41:50.027Z,95837.19
2022-10-23T17:44:16.562Z,95823.91
2022-10-23T17:46:43.731Z,95827.69
2022-10-23T17:49:11.470Z,95809.44
2022-10-23T17:51:37.888Z,95813.03
2022-10-23T17:54:07.970Z,95799.13
2022-10-23T17:56:37.467Z,95798.47
2022-10-23T17:59:13.933Z,95801.41
2022-10-23T18:01:42.930Z,95803.16
2022-10-23T18:04:09.723Z,95793.81
2022-10-23T18:06:41.941Z,95796.94
2022-10-23T18:09:08.662Z,95792.59
2022-10-23T18:11:37.953Z,95807.88
2022-10-23T18:14:06.329Z,95805.75
2022-10-23T18:16:34.556Z,95811.09
2022-10-23T18:19:01.798Z,95823.75
2022-10-23T18:21:28.806Z,95824.72
2022-10-23T18:23:56.126Z,95831.84
2022-10-23T18:26:26.511Z,95840.94
2022-10-23T18:28:57.271Z,95830.03
2022-10-23T18:31:25.445Z,95845.22
2022-10-23T18:34:02.042Z,95843.13
2022-10-23T18:36:33.439Z,95845.22
2022-10-23T18:39:00.004Z,95852.81
2022-10-23T18:41:27.463Z,95855.25
2022-10-23T18:43:54.516Z,95862.94
2022-10-23T18:46:21.805Z,95865.34
2022-10-23T18:48:51.148Z,95866.16
2022-10-23T18:51:23.902Z,95880.94
2022-10-23T18:53:51.790Z,95875.28
2022-10-23T18:56:24.147Z,95876.06
2022-10-23T18:58:52.911Z,95886.03
2022-10-23T19:01:20.298Z,95892.28
2022-10-23T19:03:46.975Z,95892.53
2022-10-23T19:06:14.331Z,95902.59
2022-10-23T19:08:43.390Z,95893.47
2022-10-23T19:11:10.755Z,95885.50
2022-10-23T19:13:39.651Z,95899.22
2022-10-23T19:16:27.547Z,95914.75
2022-10-23T19:19:04.721Z,95903.81
2022-10-23T19:21:34.995Z,95903.53
2022-10-23T19:24:06.392Z,95909.84
2022-10-23T19:26:35.675Z,95910.09
2022-10-23T19:29:03.013Z,95906.47
2022-10-23T19:31:29.378Z,95900.81
2022-10-23T19:33:55.746Z,95901.06
2022-10-23T19:36:23.681Z,95903.59
2022-10-23T19:38:50.316Z,95899.84
2022-10-23T19:41:18.024Z,95906.34
2022-10-23T19:43:44.784Z,95906.72
2022-10-23T19:46:12.327Z,95916.78
2022-10-23T19:48:42.335Z,95912.25
2022-10-23T19:51:09.789Z,95914.56
2022-10-23T19:53:36.266Z,95908.19
2022-10-23T19:56:08.079Z,95921.28
2022-10-23T19:58:34.809Z,95927.44
2022-10-23T20:01:09.525Z,95931.50
2022-10-23T20:03:36.579Z,95932.38
2022-10-23T20:06:03.176Z,95938.03
2022-10-23T20:08:32.693Z,95937.66
2022-10-23T20:11:01.964Z,95947.78
2022-10-23T20:13:28.356Z,95949.78
2022-10-23T20:15:55.603Z,95949.81
2022-10-23T20:18:22.630Z,95958.75
2022-10-23T20:20:49.762Z,95950.72
2022-10-23T20:23:16.086Z,95950.59
2022-10-23T20:25:42.460Z,95956.88
2022-10-23T20:28:11.569Z,95941.75
2022-10-23T20:30:42.428Z,95952.41
2022-10-23T20:33:08.820Z,95954.19
2022-10-23T20:35:42.463Z,95952.69
2022-10-23T20:38:09.780Z,95959.97
2022-10-23T20:40:36.644Z,95961.56
2022-10-23T20:43:03.899Z,95975.50
2022-10-23T20:45:30.271Z,95971.22
2022-10-23T20:47:57.334Z,95975.41
2022-10-23T20:50:23.855Z,95975.09
2022-10-23T20:52:50.723Z,95964.97
2022-10-23T20:55:18.335Z,95964.69
2022-10-23T20:57:44.941Z,95970.41
2022-10-23T21:00:11.901Z,95969.81
2022-10-23T21:02:38.638Z,95971.31
2022-10-23T21:05:05.435Z,95981.78
2022-10-23T21:07:31.770Z,95971.63
2022-10-23T21:09:58.220Z,95980.81
2022-10-23T21:12:25.150Z,95973.31
2022-10-23T21:14:53.636Z,95961.44
2022-10-23T21:17:20.148Z,95966.84
2022-10-23T21:19:46.723Z,95987.75
2022-10-23T21:22:13.723Z,95988.75
2022-10-23T21:24:40.047Z,95995.69
2022-10-23T21:27:06.387Z,95988.38
2022-10-23T21:29:33.495Z,95971.06
2022-10-23T21:32:03.376Z,95984.16
2022-10-23T21:34:30.288Z,96002.28
2022-10-23T21:37:14.144Z,95994.25
2022-10-23T21:39:43.514Z,95999.72
2022-10-23T21:42:11.815Z,96009.13
2022-10-23T21:44:38.161Z,96012.53
2022-10-23T21:47:04.634Z,96019.63
2022-10-23T21:49:31.773Z,96011.97
2022-10-23T21:51:58.139Z,96018.09
2022-10-23T21:54:25.076Z,96024.41
2022-10-23T21:56:53.624Z,96033.41
2022-10-23T21:59:27.894Z,96042.28
2022-10-23T22:01:56.745Z,96044.97
2022-10-23T22:04:23.162Z,96062.47
2022-10-23T22:06:50.319Z,96053.03
2022-10-23T22:09:19.244Z,96058.75
2022-10-23T22:11:46.447Z,96066.88
2022-10-23T22:14:12.788Z,96080.09
2022-10-23T22:16:39.117Z,96082.94
2022-10-23T22:19:06.083Z,96086.03
2022-10-23T22:21:32.444Z,96088.44
2022-10-23T22:24:00.457Z,96090.22
2022-10-23T22:26:33.131Z,96070.38
2022-10-23T22:29:07.363Z,96067.38
2022-10-23T22:31:35.780Z,96058.94
2022-10-23T22:34:13.270Z,96062.13
2022-10-23T22:36:50.998Z,96070.41
2022-10-23T22:39:17.514Z,96063.09
2022-10-23T22:41:43.877Z,96068.50
2022-10-23T22:44:12.472Z,96056.66
2022-10-23T22:46:38.869Z,96047.97
2022-10-23T22:51:37.671Z,96021.00
2022-10-23T22:54:04.118Z,96010.31
2022-10-23T22:56:30.702Z,96019.25
2022-10-23T22:58:58.232Z,96003.72
2022-10-23T23:01:24.531Z,96026.00
2022-10-23T23:03:51.858Z,96040.19
2022-10-23T23:06:19.928Z,96037.97
2022-10-23T23:08:46.680Z,96009.31
2022-10-23T23:11:15.594Z,95975.91
2022-10-23T23:13:43.240Z,95982.56
2022-10-23T23:16:21.043Z,95986.72
2022-10-23T23:18:48.950Z,95989.31
2022-10-23T23:21:16.107Z,95994.53
2022-10-23T23:23:42.445Z,96011.22
2022-10-23T23:26:09.322Z,96017.84
2022-10-23T23:28:36.074Z,96026.78
2022-10-23T23:31:07.544Z,96026.66
2022-10-23T23:33:35.506Z,96029.09
2022-10-23T23:36:07.160Z,96025.72
2022-10-23T23:38:34.114Z,96018.88
2022-10-23T23:41:00.961Z,96014.03
2022-10-23T23:43:27.479Z,96008.75
2022-10-23T23:45:53.815Z,96010.78
2022-10-23T23:48:20.554Z,96013.44
2022-10-23T23:50:46.892Z,96015.88
2022-10-23T23:53:13.235Z,96015.16
2022-10-23T23:55:39.983Z,96017.25
2022-10-23T23:58:06.546Z,96024.91
